createdAt,value
2019-03-04T00:01:02.841Z,1.43
2019-03-04T00:03:32.029Z,1.47
2019-03-04T00:06:00.900Z,1.33
2019-03-04T00:08:29.588Z,1.50
2019-03-04T00:10:58.443Z,1.80
2019-03-04T00:13:27.236Z,1.60
2019-03-04T00:15:56.581Z,1.13
2019-03-04T00:18:26.072Z,1.33
2019-03-04T00:20:54.908Z,1.20
2019-03-04T00:23:23.790Z,1.10
2019-03-04T00:25:52.656Z,1.30
2019-03-04T00:28:21.504Z,1.20
2019-03-04T00:30:50.290Z,1.50
2019-03-04T00:33:19.073Z,1.03
2019-03-04T00:35:47.946Z,1.50
2019-03-04T00:38:16.761Z,1.43
2019-03-04T00:40:45.544Z,1.10
2019-03-04T00:43:14.393Z,1.50
2019-03-04T00:45:43.168Z,1.23
2019-03-04T00:48:12.021Z,0.90
2019-03-04T00:50:40.987Z,0.97
2019-03-04T00:53:09.846Z,1.53
2019-03-04T00:55:38.753Z,1.70
2019-03-04T00:58:07.669Z,1.03
2019-03-04T01:00:36.556Z,1.33
2019-03-04T01:03:06.108Z,1.17
2019-03-04T01:05:35.199Z,1.47
2019-03-04T01:08:04.119Z,1.27
2019-03-04T01:10:33.065Z,1.20
2019-03-04T01:13:01.401Z,0.90
2019-03-04T01:15:29.792Z,1.00
2019-03-04T01:17:58.648Z,1.07
2019-03-04T01:20:27.592Z,1.00
2019-03-04T01:22:56.003Z,0.97
2019-03-04T01:25:24.792Z,0.90
2019-03-04T01:27:53.589Z,1.00
2019-03-04T01:30:23.490Z,1.10
2019-03-04T01:32:52.808Z,0.70
2019-03-04T01:35:21.138Z,0.80
2019-03-04T01:37:50.003Z,0.90
2019-03-04T01:40:20.332Z,1.00
2019-03-04T01:42:49.360Z,0.90
2019-03-04T01:45:18.129Z,1.07
2019-03-04T01:47:47.068Z,0.83
2019-03-04T01:50:17.128Z,0.80
2019-03-04T01:52:48.482Z,0.50
2019-03-04T01:55:17.904Z,0.50
2019-03-04T01:57:46.847Z,0.50
2019-03-04T02:00:17.293Z,0.73
2019-03-04T02:02:46.236Z,0.53
2019-03-04T02:05:14.700Z,0.40
2019-03-04T02:07:43.776Z,0.30
2019-03-04T02:10:14.497Z,0.60
2019-03-04T02:12:43.420Z,0.50
2019-03-04T02:15:12.545Z,0.50
2019-03-04T02:17:41.400Z,0.70
2019-03-04T02:20:11.289Z,0.30
2019-03-04T02:22:40.148Z,0.30
2019-03-04T02:25:10.904Z,0.57
2019-03-04T02:27:40.455Z,0.33
2019-03-04T02:30:13.089Z,0.70
2019-03-04T02:32:41.964Z,0.80
2019-03-04T02:35:10.899Z,0.73
2019-03-04T02:37:39.657Z,0.63
2019-03-04T02:40:09.232Z,0.50
2019-03-04T02:42:37.545Z,0.70
2019-03-04T02:45:06.421Z,0.90
2019-03-04T02:47:35.185Z,0.80
2019-03-04T02:50:04.755Z,0.70
2019-03-04T02:52:33.065Z,0.60
2019-03-04T02:55:01.869Z,0.60
2019-03-04T02:57:30.646Z,0.50
2019-03-04T02:59:59.688Z,0.90
2019-03-04T03:02:28.010Z,1.03
2019-03-04T03:04:56.781Z,1.00
2019-03-04T03:07:25.099Z,1.00
2019-03-04T03:09:53.452Z,0.93
2019-03-04T03:12:22.302Z,1.17
2019-03-04T03:14:50.632Z,0.60
2019-03-04T03:17:19.482Z,0.60
2019-03-04T03:19:48.273Z,0.77
2019-03-04T03:22:17.032Z,1.10
2019-03-04T03:24:45.811Z,0.97
2019-03-04T03:27:14.594Z,1.20
2019-03-04T03:29:43.416Z,0.80
2019-03-04T03:32:12.209Z,0.70
2019-03-04T03:34:40.988Z,0.57
2019-03-04T03:37:09.364Z,0.73
2019-03-04T03:39:37.693Z,0.47
2019-03-04T03:42:06.524Z,0.70
2019-03-04T03:44:35.382Z,0.60
2019-03-04T03:47:03.697Z,0.77
2019-03-04T03:49:32.460Z,0.80
2019-03-04T03:52:01.029Z,0.90
2019-03-04T03:54:29.333Z,0.67
2019-03-04T03:56:58.121Z,0.63
2019-03-04T03:59:26.917Z,0.50
2019-03-04T04:01:55.773Z,0.80
2019-03-04T04:04:24.623Z,1.20
2019-03-04T04:06:53.403Z,0.97
2019-03-04T04:09:21.713Z,0.70
2019-03-04T04:11:50.522Z,0.67
2019-03-04T04:14:19.357Z,0.87
2019-03-04T04:16:47.749Z,0.90
2019-03-04T04:19:16.526Z,0.60
2019-03-04T04:21:45.416Z,1.20
2019-03-04T04:24:14.329Z,1.27
2019-03-04T04:26:43.129Z,1.37
2019-03-04T04:29:12.429Z,0.80
2019-03-04T04:31:41.762Z,0.90
2019-03-04T04:34:10.529Z,0.70
2019-03-04T04:36:38.862Z,1.13
2019-03-04T04:39:07.609Z,1.20
2019-03-04T04:41:36.468Z,0.93
2019-03-04T04:44:05.316Z,1.10
2019-03-04T04:46:47.200Z,0.83
2019-03-04T04:49:15.504Z,1.07
2019-03-04T04:51:44.285Z,0.80
2019-03-04T04:54:13.323Z,1.03
2019-03-04T04:56:42.186Z,0.70
2019-03-04T04:59:11.024Z,0.97
2019-03-04T05:01:40.271Z,1.10
2019-03-04T05:04:09.131Z,1.20
2019-03-04T05:06:37.473Z,0.70
2019-03-04T05:09:07.117Z,0.70
2019-03-04T05:11:35.497Z,1.13
2019-03-04T05:14:03.901Z,0.90
2019-03-04T05:16:32.696Z,0.67
2019-03-04T05:19:01.481Z,1.00
2019-03-04T05:21:30.333Z,0.90
2019-03-04T05:23:58.653Z,0.73
2019-03-04T05:26:27.426Z,0.67
2019-03-04T05:28:56.277Z,0.90
2019-03-04T05:31:25.193Z,0.60
2019-03-04T05:33:54.045Z,1.00
2019-03-04T05:36:22.897Z,1.20
2019-03-04T05:38:51.685Z,1.10
2019-03-04T05:41:19.995Z,1.20
2019-03-04T05:43:48.945Z,1.13
2019-03-04T05:46:17.788Z,1.17
2019-03-04T05:48:46.196Z,1.00
2019-03-04T05:51:14.961Z,1.40
2019-03-04T05:53:43.821Z,1.03
2019-03-04T05:56:12.666Z,0.80
2019-03-04T05:58:41.437Z,1.83
2019-03-04T06:01:18.864Z,1.20
2019-03-04T06:03:48.723Z,0.90
2019-03-04T06:06:36.581Z,1.03
2019-03-04T06:09:07.323Z,0.80
2019-03-04T06:11:35.781Z,0.70
2019-03-04T06:14:04.324Z,0.57
2019-03-04T06:16:33.164Z,0.93
2019-03-04T06:19:01.497Z,0.60
2019-03-04T06:21:30.285Z,0.70
2019-03-04T06:23:58.593Z,0.60
2019-03-04T06:26:27.469Z,0.80
2019-03-04T06:28:56.257Z,0.90
2019-03-04T06:31:24.568Z,0.67
2019-03-04T06:33:53.345Z,0.60
2019-03-04T06:36:22.236Z,0.80
2019-03-04T06:38:51.021Z,1.00
2019-03-04T06:41:19.345Z,1.30
2019-03-04T06:43:47.666Z,1.10
2019-03-04T06:46:15.984Z,0.80
2019-03-04T06:48:44.282Z,1.13
2019-03-04T06:51:18.840Z,0.70
2019-03-04T06:54:06.265Z,0.60
2019-03-04T06:56:39.620Z,0.60
2019-03-04T06:59:13.528Z,0.70
2019-03-04T07:01:52.184Z,0.43
2019-03-04T07:04:48.944Z,1.00
2019-03-04T07:07:17.261Z,0.70
2019-03-04T07:09:45.642Z,0.70
2019-03-04T07:12:14.408Z,0.40
2019-03-04T07:14:43.172Z,0.80
2019-03-04T07:17:11.960Z,0.70
2019-03-04T07:19:41.372Z,0.57
2019-03-04T07:22:11.084Z,0.63
2019-03-04T07:24:39.561Z,0.90
2019-03-04T07:27:08.405Z,0.50
2019-03-04T07:29:37.178Z,0.40
2019-03-04T07:32:06.028Z,0.60
2019-03-04T07:34:34.490Z,0.57
2019-03-04T07:37:03.354Z,0.83
2019-03-04T07:39:31.724Z,0.40
2019-03-04T07:42:00.770Z,0.80
2019-03-04T07:44:29.522Z,0.97
2019-03-04T07:46:57.827Z,0.53
2019-03-04T07:49:26.757Z,0.70
2019-03-04T07:51:56.036Z,0.23
2019-03-04T07:54:24.969Z,0.30
2019-03-04T07:56:53.280Z,0.57
2019-03-04T07:59:22.037Z,0.33
2019-03-04T08:01:50.883Z,0.30
2019-03-04T08:04:19.252Z,0.47
2019-03-04T08:06:50.455Z,0.30
2019-03-04T08:10:13.397Z,0.30
2019-03-04T08:13:00.948Z,0.47
2019-03-04T08:15:33.752Z,0.50
2019-03-04T08:18:02.193Z,0.30
2019-03-04T08:20:30.854Z,0.50
2019-03-04T08:22:59.681Z,0.67
2019-03-04T08:25:28.067Z,0.67
2019-03-04T08:28:00.203Z,0.40
2019-03-04T08:30:28.990Z,0.80
2019-03-04T08:32:57.853Z,0.40
2019-03-04T08:35:26.720Z,0.50
2019-03-04T08:37:55.294Z,0.40
2019-03-04T08:40:23.692Z,0.97
2019-03-04T08:42:55.971Z,0.43
2019-03-04T08:45:24.896Z,0.90
2019-03-04T08:47:55.638Z,0.93
2019-03-04T08:50:24.401Z,0.90
2019-03-04T08:52:53.350Z,0.50
2019-03-04T08:55:21.981Z,0.90
2019-03-04T08:57:50.760Z,0.60
2019-03-04T09:00:22.145Z,0.67
2019-03-04T09:02:51.261Z,0.23
2019-03-04T09:05:19.644Z,0.37
2019-03-04T09:07:48.493Z,0.30
2019-03-04T09:10:19.681Z,0.60
2019-03-04T09:12:48.865Z,0.47
2019-03-04T09:15:18.335Z,0.27
2019-03-04T09:17:48.665Z,0.53
2019-03-04T09:20:17.756Z,0.73
2019-03-04T09:22:46.668Z,0.20
2019-03-04T09:25:19.005Z,0.60
2019-03-04T09:27:47.780Z,0.37
2019-03-04T09:30:16.928Z,0.73
2019-03-04T09:32:45.869Z,0.63
2019-03-04T09:35:14.828Z,0.60
2019-03-04T09:37:43.216Z,0.40
2019-03-04T09:40:12.463Z,0.80
2019-03-04T09:42:41.438Z,0.50
2019-03-04T09:45:10.416Z,0.83
2019-03-04T09:47:39.276Z,0.40
2019-03-04T09:50:10.628Z,0.50
2019-03-04T09:52:39.413Z,0.50
2019-03-04T09:55:09.056Z,0.87
2019-03-04T09:57:37.915Z,0.70
2019-03-04T10:00:28.628Z,1.40
2019-03-04T10:03:00.100Z,0.70
2019-03-04T10:05:56.808Z,1.27
2019-03-04T10:08:34.248Z,1.40
2019-03-04T10:11:25.544Z,1.33
2019-03-04T10:14:15.931Z,0.47
2019-03-04T10:16:51.049Z,0.40
2019-03-04T10:20:05.521Z,1.27
2019-03-04T10:23:08.329Z,1.33
2019-03-04T10:26:22.698Z,1.00
2019-03-04T10:29:16.442Z,0.40
2019-03-04T10:31:54.734Z,0.70
2019-03-04T10:34:45.176Z,0.83
2019-03-04T10:37:34.441Z,0.60
2019-03-04T10:40:26.680Z,0.77
2019-03-04T10:43:13.249Z,0.90
2019-03-04T10:46:06.608Z,0.93
2019-03-04T10:48:34.920Z,0.50
2019-03-04T10:51:03.710Z,0.40
2019-03-04T10:53:32.477Z,1.47
2019-03-04T10:56:01.261Z,0.97
2019-03-04T10:58:30.100Z,1.37
2019-03-04T11:00:58.969Z,0.60
2019-03-04T11:03:29.351Z,0.90
2019-03-04T11:05:58.137Z,1.50
2019-03-04T11:08:26.725Z,0.93
2019-03-04T11:10:55.522Z,0.70
2019-03-04T11:13:24.297Z,0.60
2019-03-04T11:15:53.325Z,0.33
2019-03-04T11:18:21.662Z,0.77
2019-03-04T11:20:50.513Z,0.70
2019-03-04T11:23:19.664Z,0.53
2019-03-04T11:25:48.065Z,0.70
2019-03-04T11:28:16.988Z,0.50
2019-03-04T11:30:45.910Z,0.40
2019-03-04T11:33:14.681Z,0.67
2019-03-04T11:35:43.008Z,0.37
2019-03-04T11:38:31.558Z,0.33
2019-03-04T11:40:59.941Z,0.80
2019-03-04T11:43:28.780Z,0.33
2019-03-04T11:45:57.565Z,0.30
2019-03-04T11:48:25.957Z,0.57
2019-03-04T11:50:54.801Z,0.53
2019-03-04T11:53:23.980Z,0.40
2019-03-04T11:55:53.593Z,0.77
2019-03-04T11:58:22.899Z,0.53
2019-03-04T12:00:59.950Z,0.20
2019-03-04T12:03:28.789Z,0.50
2019-03-04T12:05:57.564Z,0.40
2019-03-04T12:08:26.333Z,0.30
2019-03-04T12:10:55.110Z,0.93
2019-03-04T12:13:23.720Z,0.53
2019-03-04T12:15:52.668Z,0.53
2019-03-04T12:18:21.516Z,0.43
2019-03-04T12:20:50.361Z,0.30
2019-03-04T12:23:19.352Z,0.40
2019-03-04T12:25:47.747Z,0.30
2019-03-04T12:28:17.778Z,0.40
2019-03-04T12:30:46.632Z,0.90
2019-03-04T12:33:15.492Z,0.80
2019-03-04T12:35:44.757Z,0.30
2019-03-04T12:38:13.140Z,0.40
2019-03-04T12:40:41.717Z,0.70
2019-03-04T12:43:10.559Z,0.47
2019-03-04T12:45:39.669Z,0.50
2019-03-04T12:48:08.708Z,0.70
2019-03-04T12:50:37.018Z,0.50
2019-03-04T12:53:05.443Z,0.70
2019-03-04T12:55:34.344Z,0.50
2019-03-04T12:58:02.765Z,0.50
2019-03-04T13:00:31.705Z,0.63
2019-03-04T13:03:00.484Z,0.80
2019-03-04T13:05:29.398Z,0.43
2019-03-04T13:07:57.783Z,0.70
2019-03-04T13:10:26.765Z,0.70
2019-03-04T13:12:55.681Z,0.60
2019-03-04T13:15:24.219Z,0.50
2019-03-04T13:17:53.081Z,0.50
2019-03-04T13:20:22.073Z,0.50
2019-03-04T13:22:50.967Z,0.53
2019-03-04T13:25:19.729Z,0.70
2019-03-04T13:27:48.637Z,0.80
2019-03-04T13:30:18.148Z,0.70
2019-03-04T13:32:46.984Z,0.80
2019-03-04T13:35:24.150Z,0.60
2019-03-04T13:37:46.376Z,0.67
2019-03-04T13:40:14.772Z,0.70
2019-03-04T13:42:43.676Z,0.80
2019-03-04T13:45:13.400Z,0.70
2019-03-04T13:47:42.764Z,0.80
2019-03-04T13:50:12.757Z,0.90
2019-03-04T13:52:41.708Z,0.67
2019-03-04T13:55:11.320Z,0.60
2019-03-04T13:57:39.697Z,0.50
2019-03-04T14:00:12.133Z,1.03
2019-03-04T14:02:40.526Z,1.00
2019-03-04T14:05:09.018Z,1.00
2019-03-04T14:07:37.344Z,0.77
2019-03-04T14:10:05.918Z,1.30
2019-03-04T14:12:34.302Z,1.23
2019-03-04T14:15:02.782Z,1.03
2019-03-04T14:17:31.629Z,1.23
2019-03-04T14:20:00.678Z,0.90
2019-03-04T14:22:29.474Z,0.87
2019-03-04T14:24:57.819Z,1.07
2019-03-04T14:27:26.581Z,1.20
2019-03-04T14:29:55.422Z,0.77
2019-03-04T14:32:24.368Z,1.30
2019-03-04T14:34:53.198Z,1.00
2019-03-04T14:37:22.010Z,1.33
2019-03-04T14:39:51.322Z,1.30
2019-03-04T14:42:19.621Z,1.10
2019-03-04T14:44:48.409Z,0.90
2019-03-04T14:47:17.164Z,1.00
2019-03-04T14:49:46.192Z,1.00
2019-03-04T14:52:14.584Z,1.13
2019-03-04T14:54:42.893Z,0.97
2019-03-04T14:57:11.703Z,0.77
2019-03-04T14:59:40.552Z,1.77
2019-03-04T15:02:09.464Z,1.57
2019-03-04T15:04:38.231Z,1.40
2019-03-04T15:07:07.244Z,0.93
2019-03-04T15:09:36.191Z,1.00
2019-03-04T15:12:05.118Z,1.70
2019-03-04T15:14:33.977Z,1.50
2019-03-04T15:17:03.695Z,1.20
2019-03-04T15:19:32.096Z,1.73
2019-03-04T15:22:00.885Z,1.83
2019-03-04T15:24:29.668Z,1.37
2019-03-04T15:26:58.468Z,2.20
2019-03-04T15:29:27.589Z,1.50
2019-03-04T15:31:56.461Z,1.83
2019-03-04T15:34:25.415Z,1.60
2019-03-04T15:36:53.908Z,1.70
2019-03-04T15:39:23.474Z,1.50
2019-03-04T15:41:51.973Z,1.70
2019-03-04T15:44:20.836Z,1.40
2019-03-04T15:46:49.619Z,1.30
2019-03-04T15:49:18.390Z,1.93
2019-03-04T15:51:47.329Z,1.17
2019-03-04T15:54:16.270Z,1.30
2019-03-04T15:56:45.150Z,1.27
2019-03-04T15:59:14.322Z,1.83
2019-03-04T16:01:43.244Z,1.73
2019-03-04T16:04:12.310Z,1.63
2019-03-04T16:06:41.170Z,1.40
2019-03-04T16:09:14.738Z,1.07
2019-03-04T16:11:43.516Z,1.10
2019-03-04T16:14:12.282Z,0.90
2019-03-04T16:16:43.325Z,0.80
2019-03-04T16:19:11.624Z,1.33
2019-03-04T16:21:40.493Z,1.00
2019-03-04T16:24:08.813Z,1.63
2019-03-04T16:26:37.691Z,1.53
2019-03-04T16:29:06.862Z,1.10
2019-03-04T16:31:35.687Z,0.70
2019-03-04T16:34:04.634Z,0.70
2019-03-04T16:36:33.498Z,0.77
2019-03-04T16:39:03.894Z,1.23
2019-03-04T16:41:32.873Z,1.43
2019-03-04T16:44:01.198Z,1.00
2019-03-04T16:46:30.102Z,1.60
2019-03-04T16:48:58.954Z,1.20
2019-03-04T16:51:28.122Z,1.60
2019-03-04T16:53:56.925Z,1.67
2019-03-04T16:56:26.184Z,1.00
2019-03-04T16:58:55.444Z,0.90
2019-03-04T17:01:24.278Z,1.10
2019-03-04T17:03:53.704Z,1.33
2019-03-04T17:06:23.066Z,1.03
2019-03-04T17:08:51.783Z,1.57
2019-03-04T17:11:20.612Z,1.07
2019-03-04T17:13:49.401Z,1.13
2019-03-04T17:16:17.804Z,0.80
2019-03-04T17:18:46.699Z,1.10
2019-03-04T17:21:15.604Z,2.67
2019-03-04T17:23:44.532Z,1.67
2019-03-04T17:26:13.548Z,1.90
2019-03-04T17:28:42.317Z,1.30
2019-03-04T17:31:11.245Z,1.33
2019-03-04T17:33:40.065Z,1.13
2019-03-04T17:36:08.619Z,1.20
2019-03-04T17:38:37.394Z,1.30
2019-03-04T17:41:06.226Z,1.17
2019-03-04T17:43:35.087Z,0.80
2019-03-04T17:46:03.928Z,1.83
2019-03-04T17:48:33.037Z,1.43
2019-03-04T17:51:01.886Z,1.27
2019-03-04T17:53:30.780Z,1.73
2019-03-04T17:55:59.656Z,1.73
2019-03-04T17:58:28.548Z,1.00
2019-03-04T18:00:57.401Z,0.77
2019-03-04T18:03:26.226Z,1.57
2019-03-04T18:05:55.072Z,0.87
2019-03-04T18:08:23.440Z,1.30
2019-03-04T18:10:51.842Z,1.23
2019-03-04T18:13:20.752Z,0.90
2019-03-04T18:15:49.592Z,1.50
2019-03-04T18:18:17.957Z,1.13
2019-03-04T18:20:46.728Z,1.23
2019-03-04T18:23:15.641Z,1.10
2019-03-04T18:25:56.759Z,1.20
2019-03-04T18:28:57.221Z,1.50
2019-03-04T18:32:02.184Z,1.30
2019-03-04T18:35:33.247Z,1.23
2019-03-04T18:38:13.783Z,0.90
2019-03-04T18:41:16.628Z,1.20
2019-03-04T18:44:02.803Z,1.00
2019-03-04T18:46:50.400Z,0.83
2019-03-04T18:49:18.695Z,0.87
2019-03-04T18:51:47.463Z,1.33
2019-03-04T18:54:18.188Z,1.10
2019-03-04T18:56:47.196Z,1.37
2019-03-04T18:59:16.096Z,1.10
2019-03-04T19:01:44.948Z,1.20
2019-03-04T19:04:13.780Z,1.50
2019-03-04T19:06:42.651Z,1.20
2019-03-04T19:09:11.051Z,1.50
2019-03-04T19:11:40.315Z,1.17
2019-03-04T19:14:08.829Z,1.20
2019-03-04T19:16:37.155Z,1.10
2019-03-04T19:19:05.544Z,1.80
2019-03-04T19:21:34.320Z,1.50
2019-03-04T19:24:03.244Z,1.40
2019-03-04T19:26:32.430Z,1.30
2019-03-04T19:29:01.537Z,1.20
2019-03-04T19:31:30.466Z,1.10
2019-03-04T19:33:59.472Z,1.50
2019-03-04T19:36:28.511Z,1.70
2019-03-04T19:38:56.960Z,1.20
2019-03-04T19:41:25.813Z,1.77
2019-03-04T19:43:54.648Z,1.07
2019-03-04T19:46:23.483Z,1.37
2019-03-04T19:48:51.866Z,1.03
2019-03-04T19:51:20.646Z,1.27
2019-03-04T19:53:49.640Z,1.90
2019-03-04T19:56:19.170Z,1.40
2019-03-04T19:58:48.117Z,1.73
2019-03-04T20:01:17.109Z,1.20
2019-03-04T20:03:46.032Z,1.17
2019-03-04T20:06:14.955Z,1.20
2019-03-04T20:08:43.368Z,1.37
2019-03-04T20:11:11.764Z,1.33
2019-03-04T20:13:40.617Z,0.93
2019-03-04T20:16:10.249Z,1.37
2019-03-04T20:18:39.177Z,1.40
2019-03-04T20:21:08.596Z,1.23
2019-03-04T20:23:37.596Z,0.80
2019-03-04T20:26:05.928Z,0.70
2019-03-04T20:28:34.808Z,1.20
2019-03-04T20:31:03.671Z,0.87
2019-03-04T20:33:32.529Z,1.53
2019-03-04T20:36:00.840Z,1.03
2019-03-04T20:38:33.204Z,1.20
2019-03-04T20:41:01.528Z,1.53
2019-03-04T20:43:29.913Z,1.10
2019-03-04T20:45:58.836Z,1.07
2019-03-04T20:48:27.640Z,0.83
2019-03-04T20:50:56.489Z,1.00
2019-03-04T20:53:24.824Z,1.23
2019-03-04T20:55:53.741Z,0.87
2019-03-04T20:58:22.596Z,1.00
2019-03-04T21:00:50.975Z,0.70
2019-03-04T21:03:19.378Z,1.00
2019-03-04T21:05:47.694Z,1.23
2019-03-04T21:08:18.088Z,1.37
2019-03-04T21:10:48.083Z,1.37
2019-03-04T21:13:32.039Z,1.07
2019-03-04T21:15:53.912Z,0.80
2019-03-04T21:18:23.384Z,1.03
2019-03-04T21:20:52.322Z,1.17
2019-03-04T21:23:21.163Z,1.23
2019-03-04T21:25:59.200Z,0.80
2019-03-04T21:29:07.983Z,1.63
2019-03-04T21:31:47.958Z,1.20
2019-03-04T21:34:41.441Z,1.57
2019-03-04T21:37:18.696Z,0.80
2019-03-04T21:39:48.583Z,0.90
2019-03-04T21:42:25.268Z,0.93
2019-03-04T21:45:22.791Z,0.97
2019-03-04T21:47:55.693Z,1.07
2019-03-04T21:50:41.597Z,1.40
2019-03-04T21:53:27.082Z,1.33
2019-03-04T21:56:34.257Z,0.83
2019-03-04T21:59:05.134Z,1.30
2019-03-04T22:01:38.993Z,0.83
2019-03-04T22:04:07.408Z,0.80
2019-03-04T22:06:35.728Z,0.70
2019-03-04T22:09:05.636Z,0.53
2019-03-04T22:11:34.669Z,0.93
2019-03-04T22:14:03.574Z,1.77
2019-03-04T22:16:32.091Z,1.10
2019-03-04T22:19:00.385Z,1.10
2019-03-04T22:21:29.308Z,0.57
2019-03-04T22:23:57.876Z,0.73
2019-03-04T22:26:26.800Z,0.77
2019-03-04T22:28:55.637Z,0.53
2019-03-04T22:31:24.491Z,1.10
2019-03-04T22:33:53.240Z,0.70
2019-03-04T22:36:21.580Z,1.23
2019-03-04T22:38:50.425Z,1.23
2019-03-04T22:41:19.353Z,0.83
2019-03-04T22:43:47.655Z,0.70
2019-03-04T22:46:16.229Z,1.53
2019-03-04T22:48:44.998Z,0.90
2019-03-04T22:51:13.759Z,1.00
2019-03-04T22:53:42.846Z,0.70
2019-03-04T22:56:11.638Z,0.87
2019-03-04T22:58:40.482Z,0.80
2019-03-04T23:01:23.175Z,0.70
2019-03-04T23:03:52.043Z,1.13
2019-03-04T23:06:24.165Z,0.93
2019-03-04T23:08:52.556Z,1.03
2019-03-04T23:11:24.257Z,1.00
2019-03-04T23:13:59.849Z,1.00
2019-03-04T23:16:30.856Z,0.83
2019-03-04T23:18:59.693Z,0.70
2019-03-04T23:21:28.555Z,0.67
2019-03-04T23:23:57.437Z,1.00
2019-03-04T23:26:26.231Z,0.93
2019-03-04T23:28:55.000Z,0.80
2019-03-04T23:31:23.986Z,1.27
2019-03-04T23:33:52.305Z,0.93
2019-03-04T23:36:21.124Z,0.87
2019-03-04T23:38:49.416Z,1.17
2019-03-04T23:41:17.716Z,1.00
2019-03-04T23:43:46.056Z,0.57
2019-03-04T23:46:14.820Z,1.00
2019-03-04T23:48:43.586Z,1.00
2019-03-04T23:51:12.584Z,0.97
2019-03-04T23:53:40.902Z,0.57
2019-03-04T23:56:09.752Z,1.00
2019-03-04T23:58:38.600Z,1.43
